< < Back
Terminal Aerodrome Forecast


Current Version              Previous Versions:   1  2  3  4  5  6  7  8  9  

Terminal Aerodrome Forecast

672
FTUS42 KFFC 291128
TAFPDK
TAF
KPDK 291128Z 2912/3012 00000KT P6SM SKC
     FM291300 02003KT P6SM FEW045
     FM291600 33003KT P6SM FEW045
     FM291900 29005KT P6SM FEW050
     FM300000 34003KT P6SM FEW050
     FM300100 00000KT P6SM FEW250=

Latest METAR

690
SAUS70 KWBC 291200
MTRPDK
METAR KPDK 291153Z 00000KT 9SM CLR 17/16 A3003 RMK AO2 SLP157 T01720161
10189 20128 52015


USA.gov is the U.S. government's official web portal to all federal, state and local government web resources and services.